createdAt,value
2022-12-18T00:01:27.000Z,17.10
2022-12-18T00:03:56.665Z,24.17
2022-12-18T00:06:25.799Z,21.38
2022-12-18T00:08:53.588Z,18.92
2022-12-18T00:11:23.582Z,22.13
2022-12-18T00:13:52.424Z,19.58
2022-12-18T00:16:25.258Z,17.67
2022-12-18T00:18:55.709Z,17.98
2022-12-18T00:21:24.142Z,25.20
2022-12-18T00:23:52.642Z,19.15
2022-12-18T00:26:22.169Z,19.90
2022-12-18T00:28:52.526Z,20.05
2022-12-18T00:31:22.269Z,19.50
2022-12-18T00:33:52.689Z,21.70
2022-12-18T00:36:25.258Z,20.35
2022-12-18T00:38:54.878Z,23.77
2022-12-18T00:41:36.847Z,17.77
2022-12-18T00:44:07.179Z,22.15
2022-12-18T00:46:35.439Z,23.27
2022-12-18T00:49:05.247Z,18.33
2022-12-18T00:51:32.991Z,19.75
2022-12-18T00:54:00.860Z,18.48
2022-12-18T00:56:28.631Z,20.20
2022-12-18T00:58:56.498Z,20.85
2022-12-18T01:01:24.433Z,20.63
2022-12-18T01:03:52.227Z,23.05
2022-12-18T01:06:22.737Z,26.85
2022-12-18T01:08:50.587Z,19.17
2022-12-18T01:11:20.207Z,21.25
2022-12-18T01:13:48.345Z,20.80
2022-12-18T01:16:17.944Z,23.65
2022-12-18T01:18:46.205Z,17.63
2022-12-18T01:21:15.624Z,19.88
2022-12-18T01:23:44.743Z,24.80
2022-12-18T01:26:14.651Z,21.60
2022-12-18T01:28:43.194Z,21.00
2022-12-18T01:31:15.904Z,19.05
2022-12-18T01:33:43.806Z,18.65
2022-12-18T01:36:17.942Z,22.85
2022-12-18T01:38:47.942Z,22.73
2022-12-18T01:41:16.839Z,19.75
2022-12-18T01:43:51.619Z,19.60
2022-12-18T01:46:21.860Z,18.63
2022-12-18T01:48:52.159Z,18.27
2022-12-18T01:51:19.983Z,22.73
2022-12-18T01:53:50.373Z,21.60
2022-12-18T01:56:20.654Z,19.92
2022-12-18T01:58:55.803Z,19.42
2022-12-18T02:01:25.158Z,19.05
2022-12-18T02:03:53.587Z,19.63
2022-12-18T02:06:27.830Z,20.10
2022-12-18T02:09:06.717Z,22.50
2022-12-18T02:11:43.167Z,19.20
2022-12-18T02:14:23.050Z,19.77
2022-12-18T02:16:59.282Z,18.02
2022-12-18T02:19:50.387Z,18.98
2022-12-18T02:22:29.089Z,19.52
2022-12-18T02:25:11.275Z,17.80
2022-12-18T02:27:42.414Z,19.23
2022-12-18T02:30:11.123Z,18.08
2022-12-18T02:32:43.488Z,19.40
2022-12-18T02:35:14.979Z,18.40
2022-12-18T02:37:45.876Z,21.30
2022-12-18T02:40:15.884Z,18.27
2022-12-18T02:42:45.062Z,18.63
2022-12-18T02:45:16.400Z,18.83
2022-12-18T02:47:47.913Z,18.48
2022-12-18T02:50:21.795Z,18.15
2022-12-18T02:53:01.707Z,19.65
2022-12-18T02:55:37.916Z,17.60
2022-12-18T02:58:18.119Z,19.55
2022-12-18T03:00:55.730Z,17.85
2022-12-18T03:03:32.332Z,17.92
2022-12-18T03:06:04.319Z,18.35
2022-12-18T03:08:39.218Z,17.92
2022-12-18T03:11:10.098Z,17.92
2022-12-18T03:13:46.591Z,18.15
2022-12-18T03:16:19.906Z,18.17
2022-12-18T03:18:52.223Z,18.48
2022-12-18T03:21:26.356Z,18.13
2022-12-18T03:23:57.898Z,18.30
2022-12-18T03:26:31.204Z,17.20
2022-12-18T03:29:09.322Z,17.75
2022-12-18T03:31:42.111Z,17.08
2022-12-18T03:36:45.117Z,15.93
2022-12-18T03:39:14.475Z,18.42
2022-12-18T03:41:49.714Z,16.52
2022-12-18T03:44:30.412Z,17.67
2022-12-18T03:47:07.244Z,16.40
2022-12-18T03:49:40.212Z,15.80
2022-12-18T03:52:12.831Z,16.35
2022-12-18T03:54:44.162Z,16.10
2022-12-18T03:57:19.067Z,17.05
2022-12-18T03:59:53.132Z,16.15
2022-12-18T04:02:26.573Z,16.25
2022-12-18T04:04:57.830Z,16.13
2022-12-18T04:07:26.167Z,18.08
2022-12-18T04:09:57.838Z,17.13
2022-12-18T04:12:26.974Z,15.40
2022-12-18T04:14:56.235Z,15.52
2022-12-18T04:17:24.764Z,18.33
2022-12-18T04:19:52.951Z,16.52
2022-12-18T04:22:21.445Z,16.27
2022-12-18T04:24:54.273Z,15.70
2022-12-18T04:27:30.468Z,15.13
2022-12-18T04:30:01.379Z,15.63
2022-12-18T04:32:29.191Z,15.43
2022-12-18T04:34:57.033Z,14.52
2022-12-18T04:37:26.685Z,14.45
2022-12-18T04:39:54.447Z,14.00
2022-12-18T04:42:29.700Z,15.43
2022-12-18T04:44:57.425Z,13.15
2022-12-18T04:47:26.558Z,13.25
2022-12-18T04:49:54.328Z,14.60
2022-12-18T04:52:24.758Z,18.60
2022-12-18T04:54:52.458Z,18.00
2022-12-18T04:57:20.225Z,17.17
2022-12-18T04:59:48.027Z,16.52
2022-12-18T05:02:15.907Z,17.27
2022-12-18T05:04:45.069Z,14.35
2022-12-18T05:07:12.765Z,15.52
2022-12-18T05:09:40.606Z,17.08
2022-12-18T05:12:09.615Z,17.20
2022-12-18T05:14:37.398Z,14.15
2022-12-18T05:17:05.103Z,13.30
2022-12-18T05:19:32.859Z,13.65
2022-12-18T05:22:02.351Z,15.45
2022-12-18T05:24:30.074Z,13.90
2022-12-18T05:26:57.845Z,15.70
2022-12-18T05:29:25.886Z,13.38
2022-12-18T05:31:53.710Z,15.00
2022-12-18T05:34:21.508Z,13.13
2022-12-18T05:36:49.243Z,14.43
2022-12-18T05:39:18.382Z,13.05
2022-12-18T05:41:46.132Z,13.00
2022-12-18T05:44:14.634Z,13.00
2022-12-18T05:46:43.721Z,11.32
2022-12-18T05:49:11.519Z,11.63
2022-12-18T05:51:39.263Z,11.63
2022-12-18T05:54:07.195Z,11.77
2022-12-18T05:56:36.495Z,13.15
2022-12-18T05:59:04.292Z,12.65
2022-12-18T06:01:32.081Z,12.07
2022-12-18T06:04:00.358Z,12.27
2022-12-18T06:06:29.509Z,11.82
2022-12-18T06:08:58.853Z,11.95
2022-12-18T06:11:28.383Z,11.77
2022-12-18T06:13:59.457Z,12.10
2022-12-18T06:16:29.914Z,11.93
2022-12-18T06:18:58.619Z,11.70
2022-12-18T06:21:27.672Z,12.00
2022-12-18T06:23:55.539Z,11.82
2022-12-18T06:26:28.080Z,10.70
2022-12-18T06:28:58.072Z,11.27
2022-12-18T06:31:27.149Z,11.90
2022-12-18T06:33:55.012Z,11.55
2022-12-18T06:36:22.755Z,11.05
2022-12-18T06:38:50.718Z,12.40
2022-12-18T06:41:20.404Z,12.38
2022-12-18T06:43:48.237Z,12.27
2022-12-18T06:46:17.508Z,11.23
2022-12-18T06:48:48.319Z,11.65
2022-12-18T06:51:18.517Z,12.80
2022-12-18T06:53:46.288Z,12.25
2022-12-18T06:56:14.128Z,12.57
2022-12-18T06:58:41.950Z,13.05
2022-12-18T07:01:12.140Z,12.27
2022-12-18T07:03:42.814Z,11.85
2022-12-18T07:06:15.944Z,13.45
2022-12-18T07:08:43.960Z,12.23
2022-12-18T07:11:11.733Z,10.82
2022-12-18T07:13:39.907Z,11.25
2022-12-18T07:16:17.096Z,12.27
2022-12-18T07:18:49.431Z,10.85
2022-12-18T07:21:20.136Z,11.95
2022-12-18T07:23:49.248Z,11.50
2022-12-18T07:26:20.178Z,10.95
2022-12-18T07:28:48.104Z,12.40
2022-12-18T07:31:18.303Z,11.25
2022-12-18T07:33:46.889Z,11.95
2022-12-18T07:36:16.763Z,12.25
2022-12-18T07:38:44.980Z,11.05
2022-12-18T07:41:14.731Z,11.07
2022-12-18T07:43:43.601Z,10.95
2022-12-18T07:46:14.621Z,11.57
2022-12-18T07:48:42.867Z,11.73
2022-12-18T07:51:12.465Z,10.32
2022-12-18T07:53:42.684Z,11.68
2022-12-18T07:56:29.903Z,10.95
2022-12-18T07:58:59.175Z,10.85
2022-12-18T08:01:27.511Z,12.02
2022-12-18T08:03:55.547Z,12.38
2022-12-18T08:06:24.187Z,11.98
2022-12-18T08:08:54.633Z,10.52
2022-12-18T08:11:22.824Z,12.25
2022-12-18T08:13:50.791Z,11.85
2022-12-18T08:16:19.293Z,11.57
2022-12-18T08:18:47.870Z,11.48
2022-12-18T08:21:17.788Z,11.23
2022-12-18T08:23:46.572Z,11.05
2022-12-18T08:26:15.862Z,11.27
2022-12-18T08:28:43.656Z,11.00
2022-12-18T08:31:12.323Z,11.05
2022-12-18T08:33:41.659Z,13.48
2022-12-18T08:36:11.912Z,12.30
2022-12-18T08:38:39.702Z,11.65
2022-12-18T08:41:09.175Z,11.18
2022-12-18T08:43:55.787Z,11.98
2022-12-18T08:46:25.771Z,11.77
2022-12-18T08:48:54.711Z,12.48
2022-12-18T08:51:22.596Z,12.05
2022-12-18T08:53:50.424Z,12.75
2022-12-18T08:56:18.703Z,11.23
2022-12-18T08:58:47.870Z,12.35
2022-12-18T09:01:15.961Z,12.90
2022-12-18T09:03:44.348Z,11.10
2022-12-18T09:06:16.631Z,10.98
2022-12-18T09:08:44.956Z,11.52
2022-12-18T09:11:15.778Z,11.18
2022-12-18T09:13:43.637Z,11.63
2022-12-18T09:16:12.902Z,11.82
2022-12-18T09:18:41.107Z,10.93
2022-12-18T09:21:13.845Z,11.52
2022-12-18T09:23:41.983Z,10.88
2022-12-18T09:26:10.005Z,13.43
2022-12-18T09:28:38.422Z,12.38
2022-12-18T09:31:08.790Z,12.45
2022-12-18T09:33:38.039Z,11.70
2022-12-18T09:36:09.089Z,11.88
2022-12-18T09:38:37.880Z,11.70
2022-12-18T09:41:16.683Z,12.40
2022-12-18T09:43:49.335Z,11.77
2022-12-18T09:46:22.053Z,12.15
2022-12-18T09:48:54.255Z,11.20
2022-12-18T09:51:26.919Z,10.45
2022-12-18T09:53:59.508Z,9.95
2022-12-18T09:56:31.302Z,11.68
2022-12-18T09:59:01.420Z,10.27
2022-12-18T10:01:40.223Z,10.13
2022-12-18T10:04:12.679Z,9.85
2022-12-18T10:06:47.341Z,9.82
2022-12-18T10:09:26.987Z,10.25
2022-12-18T10:12:05.077Z,9.05
2022-12-18T10:14:43.476Z,9.45
2022-12-18T10:17:22.702Z,9.43
2022-12-18T10:19:57.188Z,9.80
2022-12-18T10:22:37.122Z,10.30
2022-12-18T10:25:16.435Z,9.68
2022-12-18T10:27:44.287Z,8.15
2022-12-18T10:30:15.892Z,8.85
2022-12-18T10:32:43.972Z,9.57
2022-12-18T10:35:20.648Z,11.60
2022-12-18T10:38:08.297Z,9.15
2022-12-18T10:40:51.069Z,8.98
2022-12-18T10:43:23.975Z,8.23
2022-12-18T10:46:04.850Z,9.40
2022-12-18T10:48:33.838Z,9.55
2022-12-18T10:51:12.821Z,8.93
2022-12-18T10:53:44.463Z,9.25
2022-12-18T10:56:12.656Z,9.68
2022-12-18T10:58:41.460Z,9.48
2022-12-18T11:01:13.113Z,9.20
2022-12-18T11:03:43.170Z,9.30
2022-12-18T11:06:14.425Z,8.77
2022-12-18T11:08:44.673Z,9.23
2022-12-18T11:11:22.436Z,9.43
2022-12-18T11:14:00.759Z,9.07
2022-12-18T11:16:29.908Z,9.10
2022-12-18T11:19:19.671Z,9.40
2022-12-18T11:21:50.160Z,8.85
2022-12-18T11:24:23.084Z,8.10
2022-12-18T11:26:56.246Z,9.25
2022-12-18T11:29:34.167Z,8.38
2022-12-18T11:32:25.041Z,10.05
2022-12-18T11:34:59.258Z,9.00
2022-12-18T11:37:29.752Z,8.40
2022-12-18T11:40:01.818Z,9.10
2022-12-18T11:42:37.451Z,9.40
2022-12-18T11:45:22.744Z,9.13
2022-12-18T11:47:56.227Z,8.57
2022-12-18T11:50:27.434Z,7.18
2022-12-18T11:53:00.343Z,9.32
2022-12-18T11:55:41.364Z,8.48
2022-12-18T11:58:19.510Z,8.98
2022-12-18T12:00:55.052Z,8.07
2022-12-18T12:03:38.953Z,8.40
2022-12-18T12:06:15.607Z,9.50
2022-12-18T12:08:59.598Z,9.05
2022-12-18T12:11:37.076Z,9.55
2022-12-18T12:16:52.336Z,9.43
2022-12-18T12:19:37.174Z,10.40
2022-12-18T12:22:10.936Z,8.80
2022-12-18T12:24:53.439Z,9.30
2022-12-18T12:27:32.428Z,9.75
2022-12-18T12:30:08.457Z,9.15
2022-12-18T12:32:52.032Z,9.60
2022-12-18T12:35:31.702Z,10.45
2022-12-18T12:38:09.013Z,10.05
2022-12-18T12:40:53.852Z,9.52
2022-12-18T12:43:29.681Z,9.93
2022-12-18T12:46:02.048Z,9.77
2022-12-18T12:48:38.022Z,9.93
2022-12-18T12:51:14.466Z,9.77
2022-12-18T12:53:44.486Z,10.15
2022-12-18T12:56:17.585Z,9.90
2022-12-18T12:58:57.578Z,10.52
2022-12-18T13:01:34.659Z,10.70
2022-12-18T13:04:11.004Z,9.52
2022-12-18T13:06:46.654Z,10.00
2022-12-18T13:09:15.101Z,9.63
2022-12-18T13:12:03.222Z,10.73
2022-12-18T13:14:34.614Z,9.77
2022-12-18T13:17:38.920Z,10.20
2022-12-18T13:20:17.375Z,8.98
2022-12-18T13:22:47.887Z,9.48
2022-12-18T13:25:34.466Z,9.85
2022-12-18T13:28:13.635Z,9.00
2022-12-18T13:30:53.725Z,9.98
2022-12-18T13:34:23.945Z,10.38
2022-12-18T13:36:36.402Z,10.15
2022-12-18T13:39:34.765Z,10.18
2022-12-18T13:42:57.000Z,10.02
2022-12-18T13:45:42.431Z,9.50
2022-12-18T13:48:23.959Z,10.45
2022-12-18T13:50:57.157Z,9.25
2022-12-18T13:53:28.573Z,8.93
2022-12-18T13:55:57.098Z,10.05
2022-12-18T13:58:25.008Z,8.95
2022-12-18T14:00:54.222Z,9.25
2022-12-18T14:03:27.098Z,9.52
2022-12-18T14:06:02.100Z,8.73
2022-12-18T14:08:35.813Z,9.60
2022-12-18T14:11:06.368Z,10.05
2022-12-18T14:13:38.648Z,9.52
2022-12-18T14:18:45.940Z,8.88
2022-12-18T14:21:23.842Z,9.50
2022-12-18T14:24:04.684Z,8.88
2022-12-18T14:26:34.213Z,9.15
2022-12-18T14:29:16.375Z,9.82
2022-12-18T14:31:46.414Z,9.98
2022-12-18T14:34:17.691Z,10.48
2022-12-18T14:36:54.850Z,8.95
2022-12-18T14:39:23.133Z,10.27
2022-12-18T14:41:51.695Z,9.30
2022-12-18T14:44:19.562Z,9.40
2022-12-18T14:46:49.908Z,9.75
2022-12-18T14:49:24.437Z,10.32
2022-12-18T14:51:54.232Z,10.23
2022-12-18T14:54:24.904Z,10.05
2022-12-18T14:56:58.875Z,9.85
2022-12-18T14:59:30.152Z,10.27
2022-12-18T15:04:36.592Z,10.07
2022-12-18T15:07:13.610Z,10.43
2022-12-18T15:09:43.196Z,12.70
2022-12-18T15:12:26.626Z,11.65
2022-12-18T15:17:26.131Z,10.20
2022-12-18T15:20:00.504Z,12.98
2022-12-18T15:22:30.488Z,9.95
2022-12-18T15:24:59.992Z,10.40
2022-12-18T15:27:31.608Z,12.48
2022-12-18T15:30:18.996Z,10.52
2022-12-18T15:32:48.730Z,10.43
2022-12-18T15:35:19.634Z,10.85
2022-12-18T15:37:47.709Z,11.43
2022-12-18T15:40:17.467Z,13.13
2022-12-18T15:43:03.913Z,13.45
2022-12-18T15:45:31.844Z,11.95
2022-12-18T15:48:01.803Z,11.65
2022-12-18T15:50:30.124Z,12.30
2022-12-18T15:52:58.688Z,10.80
2022-12-18T15:55:44.117Z,11.75
2022-12-18T15:58:12.966Z,11.23
2022-12-18T16:00:42.467Z,10.95
2022-12-18T16:03:12.183Z,11.00
2022-12-18T16:05:40.230Z,11.02
2022-12-18T16:08:08.101Z,10.73
2022-12-18T16:10:37.185Z,12.60
2022-12-18T16:13:04.939Z,12.07
2022-12-18T16:15:32.700Z,10.57
2022-12-18T16:18:00.484Z,10.70
2022-12-18T16:20:29.589Z,12.38
2022-12-18T16:22:57.400Z,10.18
2022-12-18T16:25:27.433Z,11.73
2022-12-18T16:27:56.158Z,12.45
2022-12-18T16:30:26.427Z,11.63
2022-12-18T16:32:54.299Z,12.55
2022-12-18T16:35:22.227Z,12.95
2022-12-18T16:37:51.569Z,12.18
2022-12-18T16:40:19.867Z,13.00
2022-12-18T16:42:48.531Z,13.02
2022-12-18T16:45:18.551Z,12.35
2022-12-18T16:47:46.587Z,11.07
2022-12-18T16:50:14.645Z,15.38
2022-12-18T16:52:42.726Z,10.38
2022-12-18T16:55:12.080Z,10.55
2022-12-18T16:57:39.831Z,13.70
2022-12-18T17:00:09.101Z,9.85
2022-12-18T17:02:37.613Z,14.00
2022-12-18T17:05:06.437Z,12.25
2022-12-18T17:07:34.367Z,10.73
2022-12-18T17:10:03.576Z,10.85
2022-12-18T17:12:33.848Z,12.73
2022-12-18T17:15:01.607Z,13.38
2022-12-18T17:17:29.409Z,16.58
2022-12-18T17:19:57.213Z,13.23
2022-12-18T17:22:25.020Z,14.32
2022-12-18T17:24:52.811Z,14.02
2022-12-18T17:27:20.622Z,14.30
2022-12-18T17:29:49.711Z,12.60
2022-12-18T17:32:17.516Z,14.02
2022-12-18T17:34:45.460Z,13.27
2022-12-18T17:37:13.300Z,12.60
2022-12-18T17:39:41.024Z,14.05
2022-12-18T17:42:10.654Z,12.30
2022-12-18T17:44:43.069Z,16.77
2022-12-18T17:47:12.978Z,15.52
2022-12-18T17:49:40.936Z,16.45
2022-12-18T17:52:08.766Z,13.55
2022-12-18T17:54:39.442Z,13.88
2022-12-18T17:57:07.374Z,20.05
2022-12-18T17:59:35.123Z,14.40
2022-12-18T18:02:02.987Z,18.00
2022-12-18T18:04:32.231Z,13.07
2022-12-18T18:06:59.997Z,13.20
2022-12-18T18:09:28.519Z,17.30
2022-12-18T18:12:14.779Z,16.33
2022-12-18T18:14:42.568Z,17.50
2022-12-18T18:17:10.416Z,17.10
2022-12-18T18:19:39.559Z,14.45
2022-12-18T18:22:08.287Z,16.80
2022-12-18T18:24:36.064Z,14.18
2022-12-18T18:27:03.956Z,15.07
2022-12-18T18:29:31.901Z,17.90
2022-12-18T18:32:00.071Z,15.45
2022-12-18T18:34:30.246Z,14.05
2022-12-18T18:36:59.504Z,17.17
2022-12-18T18:39:27.828Z,18.40
2022-12-18T18:41:55.693Z,13.05
2022-12-18T18:44:25.635Z,14.52
2022-12-18T18:46:55.407Z,13.60
2022-12-18T18:49:26.999Z,13.68
2022-12-18T18:51:55.493Z,18.75
2022-12-18T18:54:24.650Z,15.70
2022-12-18T18:59:40.493Z,18.13
2022-12-18T19:02:12.340Z,14.77
2022-12-18T19:04:45.545Z,12.68
2022-12-18T19:07:14.562Z,13.45
2022-12-18T19:12:39.723Z,14.68
2022-12-18T19:15:08.913Z,12.35
2022-12-18T19:17:37.391Z,16.05
2022-12-18T19:20:06.539Z,14.73
2022-12-18T19:22:36.103Z,14.32
2022-12-18T19:25:05.717Z,17.05
2022-12-18T19:27:36.447Z,14.32
2022-12-18T19:30:04.812Z,13.18
2022-12-18T19:32:32.637Z,16.58
2022-12-18T19:35:00.566Z,14.15
2022-12-18T19:37:29.180Z,15.38
2022-12-18T19:39:57.421Z,12.23
2022-12-18T19:42:29.368Z,13.90
2022-12-18T19:45:01.172Z,13.68
2022-12-18T19:47:28.938Z,11.50
2022-12-18T19:49:56.717Z,14.18
2022-12-18T19:52:24.500Z,13.23
2022-12-18T19:54:52.816Z,14.57
2022-12-18T19:57:20.844Z,14.15
2022-12-18T19:59:49.980Z,13.25
2022-12-18T20:02:18.954Z,14.98
2022-12-18T20:04:47.062Z,19.98
2022-12-18T20:07:14.790Z,15.98
2022-12-18T20:09:42.592Z,16.77
2022-12-18T20:12:12.182Z,18.80
2022-12-18T20:14:40.099Z,11.85
2022-12-18T20:17:09.286Z,19.52
2022-12-18T20:19:37.432Z,20.73
2022-12-18T20:22:05.907Z,23.92
2022-12-18T20:24:33.681Z,15.13
2022-12-18T20:27:01.471Z,16.73
2022-12-18T20:29:29.366Z,14.90
2022-12-18T20:31:57.181Z,16.42
2022-12-18T20:34:26.333Z,21.38
2022-12-18T20:36:55.119Z,21.05
2022-12-18T20:39:25.127Z,20.52
2022-12-18T20:41:53.750Z,17.33
2022-12-18T20:44:23.903Z,26.23
2022-12-18T20:46:57.404Z,16.48
2022-12-18T20:49:27.605Z,22.58
2022-12-18T20:51:57.556Z,24.75
2022-12-18T20:54:27.323Z,17.58
2022-12-18T20:56:55.526Z,23.05
2022-12-18T20:59:25.505Z,20.35
2022-12-18T21:01:54.048Z,16.90
2022-12-18T21:04:22.978Z,23.08
2022-12-18T21:06:59.212Z,17.70
2022-12-18T21:09:37.709Z,21.38
2022-12-18T21:12:24.455Z,21.98
2022-12-18T21:14:52.368Z,16.30
2022-12-18T21:17:20.115Z,14.68
2022-12-18T21:19:47.939Z,21.25
2022-12-18T21:22:18.022Z,22.85
2022-12-18T21:24:45.892Z,18.45
2022-12-18T21:27:14.245Z,22.33
2022-12-18T21:29:45.690Z,22.73
2022-12-18T21:32:13.987Z,21.45
2022-12-18T21:34:46.211Z,13.45
2022-12-18T21:37:16.307Z,25.05
2022-12-18T21:39:45.460Z,18.67
2022-12-18T21:42:31.092Z,25.42
2022-12-18T21:44:58.999Z,20.92
2022-12-18T21:47:26.762Z,24.17
2022-12-18T21:49:55.183Z,20.40
2022-12-18T21:52:25.699Z,23.08
2022-12-18T21:55:07.830Z,19.30
2022-12-18T21:57:36.881Z,23.58
2022-12-18T22:00:06.107Z,19.30
2022-12-18T22:02:40.222Z,25.95
2022-12-18T22:05:08.990Z,20.83
2022-12-18T22:07:36.796Z,27.35
2022-12-18T22:10:06.484Z,23.00
2022-12-18T22:12:42.921Z,26.60
2022-12-18T22:15:19.214Z,33.60
2022-12-18T22:17:49.882Z,23.10
2022-12-18T22:20:17.888Z,19.38
2022-12-18T22:22:48.072Z,18.75
2022-12-18T22:25:17.318Z,24.08
2022-12-18T22:28:05.158Z,21.00
2022-12-18T22:30:35.152Z,22.98
2022-12-18T22:33:05.001Z,30.98
2022-12-18T22:35:32.822Z,23.02
2022-12-18T22:38:00.811Z,25.70
2022-12-18T22:40:30.247Z,21.52
2022-12-18T22:42:58.292Z,17.30
2022-12-18T22:45:26.859Z,16.17
2022-12-18T22:47:55.068Z,21.00
2022-12-18T22:50:22.864Z,17.20
2022-12-18T22:52:50.636Z,20.77
2022-12-18T22:55:18.472Z,25.80
2022-12-18T22:57:49.182Z,23.95
2022-12-18T23:00:21.961Z,26.88
2022-12-18T23:02:59.443Z,17.90
2022-12-18T23:05:29.062Z,37.42
2022-12-18T23:07:56.857Z,28.65
2022-12-18T23:10:24.604Z,18.65
2022-12-18T23:12:53.675Z,19.77
2022-12-18T23:15:23.526Z,25.38
2022-12-18T23:17:56.857Z,21.38
2022-12-18T23:20:24.862Z,20.80
2022-12-18T23:22:52.878Z,26.58
2022-12-18T23:25:20.627Z,19.63
2022-12-18T23:27:48.403Z,28.52
2022-12-18T23:30:17.745Z,34.03
2022-12-18T23:32:45.514Z,24.35
2022-12-18T23:35:15.532Z,36.53
2022-12-18T23:38:00.222Z,25.10
2022-12-18T23:40:29.776Z,24.83
2022-12-18T23:42:57.686Z,18.83
2022-12-18T23:45:26.768Z,20.15
2022-12-18T23:47:54.548Z,22.15
2022-12-18T23:50:23.764Z,33.42
2022-12-18T23:53:03.272Z,28.92
2022-12-18T23:55:33.420Z,19.88
2022-12-18T23:58:01.176Z,35.17
